Time;durP1;ratioP1;P1;durP2;ratioP2;P2;SDS_P1;SDS_P2;PMS_P1;PMS_P2;Temp;Humidity;BMP_temperature;BMP_pressure;BME280_temperature;BME280_humidity;BME280_pressure;Samples;Min_cycle;Max_cycle;Signal;HPM_P1;HPM_P2
2020/12/04 00:00:32;;;;;;;22.10;14.27;;;1.30;99.90;;;;;;5031935;28;20036;-72
2020/12/04 00:02:58;;;;;;;27.00;14.93;;;1.20;99.90;;;;;;5031626;28;20029;-69
2020/12/04 00:05:23;;;;;;;22.48;14.07;;;1.20;99.90;;;;;;5031369;28;20646;-70
2020/12/04 00:07:49;;;;;;;26.38;15.55;;;1.10;99.90;;;;;;5031976;28;20037;-70
2020/12/04 00:10:16;;;;;;;22.48;14.35;;;1.20;99.90;;;;;;5031861;28;20109;-70
2020/12/04 00:12:41;;;;;;;22.50;13.93;;;1.30;99.90;;;;;;5029235;28;20032;-70
2020/12/04 00:15:08;;;;;;;23.02;14.32;;;1.20;99.90;;;;;;5031152;28;20026;-69
2020/12/04 00:17:35;;;;;;;22.60;13.68;;;1.20;99.90;;;;;;5031195;28;20026;-70
2020/12/04 00:20:01;;;;;;;17.83;12.40;;;1.20;99.90;;;;;;5034550;28;20025;-69
2020/12/04 00:22:26;;;;;;;21.63;13.77;;;1.20;99.90;;;;;;5044002;23;20049;-69
2020/12/04 00:24:52;;;;;;;27.13;14.23;;;1.30;99.90;;;;;;5037460;28;20036;-67
2020/12/04 00:27:17;;;;;;;22.40;13.90;;;1.30;99.90;;;;;;5053435;28;20079;-67
2020/12/04 00:29:43;;;;;;;27.10;15.93;;;1.30;99.90;;;;;;5056097;28;20028;-67
2020/12/04 00:32:09;;;;;;;20.80;14.13;;;1.30;99.90;;;;;;5057690;28;20033;-67
2020/12/04 00:34:35;;;;;;;24.65;15.27;;;1.30;99.90;;;;;;5055497;28;20029;-67
2020/12/04 00:37:00;;;;;;;22.40;13.25;;;1.20;99.90;;;;;;5055581;28;20020;-67
2020/12/04 00:39:26;;;;;;;22.02;14.23;;;1.20;99.90;;;;;;5055873;28;20025;-68
2020/12/04 00:41:52;;;;;;;25.25;15.13;;;1.20;99.90;;;;;;5055533;28;20025;-67
2020/12/04 00:44:18;;;;;;;25.50;14.43;;;1.30;99.90;;;;;;5054958;28;20023;-67
2020/12/04 00:46:43;;;;;;;20.40;13.98;;;1.20;99.90;;;;;;5055934;28;20032;-67
2020/12/04 00:49:09;;;;;;;21.10;12.88;;;1.30;99.90;;;;;;5055460;28;20033;-68
2020/12/04 00:51:35;;;;;;;22.60;14.55;;;1.30;99.90;;;;;;5055455;28;20021;-68
2020/12/04 00:54:00;;;;;;;25.40;14.77;;;1.30;99.90;;;;;;5040197;28;20656;-67
2020/12/04 00:56:30;;;;;;;22.60;14.45;;;1.30;99.90;;;;;;5035541;28;20101;-67
2020/12/04 00:58:56;;;;;;;21.17;14.68;;;1.40;99.90;;;;;;5035360;28;20128;-68
2020/12/04 01:01:22;;;;;;;27.45;15.75;;;1.30;99.90;;;;;;5035525;28;20096;-67
2020/12/04 01:03:47;;;;;;;23.00;14.40;;;1.40;99.90;;;;;;5034684;28;20028;-67
2020/12/04 01:06:13;;;;;;;23.95;15.75;;;1.40;99.90;;;;;;5035104;28;20026;-67
2020/12/04 01:08:41;;;;;;;25.33;14.82;;;1.30;99.90;;;;;;5035027;28;20053;-66
2020/12/04 01:11:06;;;;;;;24.45;15.05;;;1.40;99.90;;;;;;5035131;28;20380;-68
2020/12/04 01:13:32;;;;;;;29.35;16.08;;;1.30;99.90;;;;;;5034123;28;20051;-67
2020/12/04 01:15:57;;;;;;;25.52;16.02;;;1.30;99.90;;;;;;5035026;28;20017;-67
2020/12/04 01:18:23;;;;;;;25.73;16.05;;;1.30;99.90;;;;;;5035206;28;20071;-67
2020/12/04 01:20:49;;;;;;;24.83;16.10;;;1.30;99.90;;;;;;5034748;28;20499;-68
2020/12/04 01:23:14;;;;;;;26.05;17.30;;;1.30;99.90;;;;;;5034234;28;20095;-67
2020/12/04 01:25:40;;;;;;;25.05;16.13;;;1.30;99.90;;;;;;5033480;28;20434;-68
2020/12/04 01:28:06;;;;;;;25.63;15.25;;;1.30;99.90;;;;;;5034721;28;20029;-68
2020/12/04 01:30:31;;;;;;;26.27;15.82;;;1.30;99.90;;;;;;5034486;28;20076;-67
2020/12/04 01:32:57;;;;;;;23.00;15.15;;;1.30;99.90;;;;;;5034203;28;20043;-68
2020/12/04 01:35:23;;;;;;;24.60;15.15;;;1.30;99.90;;;;;;5034657;28;20104;-67
2020/12/04 01:37:49;;;;;;;22.27;14.23;;;1.30;99.90;;;;;;5034117;28;20499;-69
2020/12/04 01:40:14;;;;;;;22.67;15.00;;;1.30;99.90;;;;;;5034643;28;20146;-67
2020/12/04 01:42:40;;;;;;;26.67;15.85;;;1.30;99.90;;;;;;5033760;28;20515;-67
2020/12/04 01:45:06;;;;;;;21.67;14.35;;;1.30;99.90;;;;;;5034015;28;20021;-67
2020/12/04 01:47:31;;;;;;;27.17;14.98;;;1.30;99.90;;;;;;5033048;28;20159;-67
2020/12/04 01:49:57;;;;;;;27.83;15.77;;;1.40;99.90;;;;;;5034331;28;20052;-67
2020/12/04 01:52:25;;;;;;;25.23;14.85;;;1.40;99.90;;;;;;5034409;28;20406;-68
2020/12/04 01:54:52;;;;;;;24.05;14.98;;;1.30;99.90;;;;;;5033447;28;20395;-68
2020/12/04 01:57:21;;;;;;;22.67;14.55;;;1.40;99.90;;;;;;5032859;28;20025;-67
2020/12/04 01:59:48;;;;;;;23.25;14.85;;;1.40;99.90;;;;;;5034102;28;20045;-69
2020/12/04 02:02:23;;;;;;;23.05;14.80;;;1.30;99.90;;;;;;5033969;28;20028;-67
2020/12/04 02:04:50;;;;;;;21.27;14.35;;;1.30;99.90;;;;;;5033264;28;20018;-67
2020/12/04 02:07:39;;;;;;;22.70;15.13;;;1.30;99.90;;;;;;5034061;28;20021;-67
2020/12/04 02:10:30;;;;;;;22.13;13.93;;;1.30;99.90;;;;;;5033871;28;20022;-69
2020/12/04 02:12:57;;;;;;;26.93;14.43;;;1.20;99.90;;;;;;5033404;28;20033;-67
2020/12/04 02:15:23;;;;;;;25.45;15.75;;;1.30;99.90;;;;;;5033799;28;20050;-67
2020/12/04 02:17:56;;;;;;;24.10;15.55;;;1.40;99.90;;;;;;5033856;28;20025;-68
2020/12/04 02:20:22;;;;;;;24.05;14.35;;;1.30;99.90;;;;;;5034337;28;20045;-68
2020/12/04 02:22:48;;;;;;;19.60;12.52;;;1.20;99.90;;;;;;5028323;28;20107;-68
2020/12/04 02:25:14;;;;;;;17.30;11.90;;;1.20;99.90;;;;;;5012543;28;20419;-68
2020/12/04 02:27:47;;;;;;;20.17;13.48;;;1.20;99.90;;;;;;5014495;28;20030;-69
2020/12/04 02:30:38;;;;;;;21.20;13.57;;;1.20;99.90;;;;;;5014255;28;20022;-68
2020/12/04 02:33:04;;;;;;;21.80;13.55;;;1.20;99.90;;;;;;5012943;28;20128;-67
2020/12/04 02:35:30;;;;;;;23.85;13.85;;;1.20;99.90;;;;;;5014363;28;20072;-68
2020/12/04 02:37:55;;;;;;;22.98;13.75;;;1.20;99.90;;;;;;5014011;28;20029;-68
2020/12/04 02:40:22;;;;;;;21.42;13.13;;;1.30;99.90;;;;;;5013823;28;20073;-68
2020/12/04 02:42:48;;;;;;;20.58;13.55;;;1.30;99.90;;;;;;5013399;28;20032;-68
2020/12/04 02:45:14;;;;;;;19.02;12.93;;;1.20;99.90;;;;;;5012727;28;20109;-68
2020/12/04 02:47:43;;;;;;;20.23;13.55;;;1.30;99.90;;;;;;5012712;28;20080;-69
2020/12/04 02:50:09;;;;;;;20.50;13.23;;;1.30;99.90;;;;;;5013572;28;20030;-68
2020/12/04 02:52:34;;;;;;;22.92;13.38;;;1.30;99.90;;;;;;5016284;28;20022;-67
2020/12/04 02:55:00;;;;;;;23.80;13.57;;;1.20;99.90;;;;;;5032777;28;20060;-68
2020/12/04 02:57:25;;;;;;;22.90;14.27;;;1.20;99.90;;;;;;5032739;28;20017;-68
2020/12/04 02:59:51;;;;;;;22.98;12.73;;;1.30;99.90;;;;;;5033738;28;20021;-68
2020/12/04 03:02:17;;;;;;;23.02;13.57;;;1.20;99.90;;;;;;5032940;28;20548;-68
2020/12/04 03:04:43;;;;;;;25.58;13.73;;;1.20;99.90;;;;;;5032664;28;20025;-69
2020/12/04 03:07:10;;;;;;;21.25;13.25;;;1.30;99.90;;;;;;5032606;28;20101;-67
2020/12/04 03:09:36;;;;;;;22.35;13.88;;;1.20;99.90;;;;;;5032535;28;20100;-67
2020/12/04 03:12:02;;;;;;;22.88;14.80;;;1.20;99.90;;;;;;5032972;28;20531;-67
2020/12/04 03:14:27;;;;;;;23.00;15.02;;;1.20;99.90;;;;;;5031533;28;20384;-68
2020/12/04 03:16:53;;;;;;;23.15;15.75;;;1.20;99.90;;;;;;5032214;28;20079;-67
2020/12/04 03:19:19;;;;;;;24.48;16.23;;;1.20;99.90;;;;;;5032393;28;20021;-67
2020/12/04 03:21:44;;;;;;;23.55;15.57;;;1.20;99.90;;;;;;5032420;28;20022;-67
2020/12/04 03:24:10;;;;;;;24.65;14.93;;;1.20;99.90;;;;;;5031384;28;20087;-68
2020/12/04 03:26:36;;;;;;;23.67;16.35;;;1.20;99.90;;;;;;5032429;28;20025;-68
2020/12/04 03:29:02;;;;;;;26.05;16.17;;;1.30;99.90;;;;;;5032371;28;20549;-68
2020/12/04 03:31:27;;;;;;;26.80;16.33;;;1.30;99.90;;;;;;5032036;28;20021;-68
2020/12/04 03:33:53;;;;;;;26.20;15.93;;;1.30;99.90;;;;;;5031754;28;20097;-69
2020/12/04 03:36:19;;;;;;;22.40;15.23;;;1.30;99.90;;;;;;5032132;28;20408;-68
2020/12/04 03:38:44;;;;;;;23.88;15.90;;;1.30;99.90;;;;;;5031810;28;20057;-68
2020/12/04 03:41:11;;;;;;;23.40;15.05;;;1.30;99.90;;;;;;5031935;28;20104;-68
2020/12/04 03:43:40;;;;;;;23.27;14.75;;;1.20;99.90;;;;;;5031211;28;20026;-68
2020/12/04 03:46:10;;;;;;;23.98;14.85;;;1.30;99.90;;;;;;5031984;28;20041;-69
2020/12/04 03:48:38;;;;;;;24.30;14.55;;;1.30;99.90;;;;;;5032044;28;20104;-68
2020/12/04 03:51:04;;;;;;;28.38;15.82;;;1.40;99.90;;;;;;5030498;28;20109;-66
2020/12/04 03:53:29;;;;;;;27.23;16.00;;;1.50;99.90;;;;;;5031272;28;20038;-68
2020/12/04 03:55:55;;;;;;;24.77;15.00;;;1.50;99.90;;;;;;5032178;28;20033;-68
2020/12/04 03:58:21;;;;;;;27.27;16.67;;;1.40;99.90;;;;;;5031768;28;20025;-67
2020/12/04 04:00:46;;;;;;;28.88;16.58;;;1.40;99.90;;;;;;5032137;28;20115;-68
2020/12/04 04:03:12;;;;;;;27.23;16.70;;;1.20;99.90;;;;;;5031133;28;20503;-68
2020/12/04 04:05:38;;;;;;;26.05;16.38;;;1.30;99.90;;;;;;5031806;28;20017;-69
2020/12/04 04:08:03;;;;;;;24.65;16.25;;;1.30;99.90;;;;;;5031905;28;20036;-68
2020/12/04 04:10:29;;;;;;;29.45;16.20;;;1.40;99.90;;;;;;5032280;28;20114;-68
2020/12/04 04:12:55;;;;;;;26.40;16.25;;;1.20;99.90;;;;;;5030965;28;20049;-67
2020/12/04 04:15:20;;;;;;;25.58;15.02;;;1.30;99.90;;;;;;5031904;28;20427;-67
2020/12/04 04:17:47;;;;;;;26.63;16.73;;;1.30;99.90;;;;;;5031560;28;20026;-67
2020/12/04 04:20:13;;;;;;;23.08;15.30;;;1.40;99.90;;;;;;5031631;28;20101;-67
2020/12/04 04:22:39;;;;;;;25.63;16.35;;;1.40;99.90;;;;;;5031092;28;20045;-67
2020/12/04 04:25:04;;;;;;;26.45;17.00;;;1.30;99.90;;;;;;5031402;28;20500;-67
2020/12/04 04:27:30;;;;;;;26.45;15.90;;;1.40;99.90;;;;;;5031573;28;20088;-68
2020/12/04 04:29:56;;;;;;;28.33;16.20;;;1.40;99.90;;;;;;5031335;28;20036;-68
2020/12/04 04:32:21;;;;;;;22.50;15.88;;;1.50;99.90;;;;;;5031468;28;20021;-67
2020/12/04 04:34:47;;;;;;;22.67;15.52;;;1.50;99.90;;;;;;5030725;28;20038;-69
2020/12/04 04:37:13;;;;;;;26.55;17.83;;;1.40;99.90;;;;;;5031524;28;20079;-67
2020/12/04 04:39:38;;;;;;;28.38;16.55;;;1.40;99.90;;;;;;5031269;28;20049;-68
2020/12/04 04:42:04;;;;;;;26.10;16.20;;;1.50;99.90;;;;;;5031149;28;20057;-69
2020/12/04 04:44:30;;;;;;;26.85;16.08;;;1.50;99.90;;;;;;5030585;28;20475;-69
2020/12/04 04:47:11;;;;;;;25.52;15.90;;;1.40;99.90;;;;;;5031554;28;20025;-69
2020/12/04 04:49:42;;;;;;;26.98;16.15;;;1.40;99.90;;;;;;5031408;28;20065;-67
2020/12/04 04:52:08;;;;;;;24.88;15.13;;;1.50;99.90;;;;;;5031261;28;20028;-68
2020/12/04 04:54:42;;;;;;;23.88;15.57;;;1.40;99.90;;;;;;5030531;28;20022;-68
2020/12/04 04:57:08;;;;;;;24.42;16.08;;;1.50;99.90;;;;;;5031255;28;20163;-67
2020/12/04 04:59:34;;;;;;;23.67;15.52;;;1.50;99.90;;;;;;5013094;28;20022;-67
2020/12/04 05:02:00;;;;;;;22.45;14.32;;;1.60;99.90;;;;;;5011466;28;20036;-68
2020/12/04 05:04:25;;;;;;;23.80;14.77;;;1.60;99.90;;;;;;5010735;28;20160;-67
2020/12/04 05:06:51;;;;;;;24.05;15.73;;;1.60;99.90;;;;;;5011533;28;20125;-68
2020/12/04 05:09:25;;;;;;;26.80;15.88;;;1.70;99.90;;;;;;5011136;28;20025;-67
2020/12/04 05:12:00;;;;;;;23.48;14.95;;;1.80;99.90;;;;;;5011539;28;20425;-67
2020/12/04 05:14:27;;;;;;;23.83;15.32;;;1.70;99.90;;;;;;5023278;28;20033;-67
2020/12/04 05:16:57;;;;;;;29.05;15.25;;;1.80;99.90;;;;;;5024396;28;20036;-68
2020/12/04 05:19:37;;;;;;;24.27;15.90;;;1.80;99.90;;;;;;5022799;28;20041;-67
2020/12/04 05:22:12;;;;;;;22.52;14.75;;;1.70;99.90;;;;;;5028696;28;20021;-69
2020/12/04 05:24:38;;;;;;;23.13;13.88;;;1.70;99.90;;;;;;5037807;28;20034;-69
2020/12/04 05:27:27;;;;;;;23.00;14.80;;;1.70;99.90;;;;;;5037146;28;20415;-67
2020/12/04 05:29:57;;;;;;;26.55;15.07;;;1.70;99.90;;;;;;5015727;28;20018;-66
2020/12/04 05:32:27;;;;;;;22.73;15.13;;;1.70;99.90;;;;;;5014050;28;20048;-70
2020/12/04 05:35:07;;;;;;;25.90;14.77;;;1.80;99.90;;;;;;5014767;28;20030;-67
2020/12/04 05:37:33;;;;;;;24.17;14.85;;;1.80;99.90;;;;;;5014834;28;20435;-67
2020/12/04 05:39:59;;;;;;;25.80;15.80;;;1.80;99.90;;;;;;5027836;28;20017;-68
2020/12/04 05:42:32;;;;;;;24.33;15.27;;;1.80;99.90;;;;;;5032968;28;20036;-66
2020/12/04 05:44:59;;;;;;;22.90;14.93;;;1.70;99.90;;;;;;5034084;28;20029;-67
2020/12/04 05:47:38;;;;;;;20.95;13.98;;;1.70;99.90;;;;;;5034298;28;20022;-65
2020/12/04 05:50:06;;;;;;;24.92;15.73;;;1.80;99.90;;;;;;5034266;28;20022;-67
2020/12/04 05:52:34;;;;;;;24.55;15.07;;;1.80;99.90;;;;;;5034152;28;20025;-66
2020/12/04 05:55:02;;;;;;;22.70;13.43;;;1.70;99.90;;;;;;5034077;28;20391;-66
2020/12/04 05:57:28;;;;;;;24.33;14.02;;;1.70;99.90;;;;;;5032796;28;20025;-66
2020/12/04 05:59:54;;;;;;;18.45;11.70;;;1.80;99.90;;;;;;5033605;28;20045;-66
2020/12/04 06:02:20;;;;;;;21.52;12.85;;;1.80;99.90;;;;;;5033572;28;20065;-66
2020/12/04 06:04:46;;;;;;;22.75;13.43;;;1.80;99.90;;;;;;5033134;28;20025;-69
2020/12/04 06:07:13;;;;;;;21.58;13.63;;;1.90;99.90;;;;;;5033209;28;20424;-69
2020/12/04 06:09:43;;;;;;;19.25;12.38;;;1.90;99.90;;;;;;5032726;28;20479;-70
2020/12/04 06:12:13;;;;;;;20.77;11.95;;;2.10;99.90;;;;;;5032127;28;20025;-70
2020/12/04 06:14:39;;;;;;;18.20;11.30;;;2.00;99.90;;;;;;5032312;28;20020;-69
2020/12/04 06:17:09;;;;;;;20.50;10.98;;;2.00;99.90;;;;;;5033149;28;20022;-69
2020/12/04 06:19:42;;;;;;;17.17;10.68;;;2.00;99.90;;;;;;5032967;28;20513;-68
2020/12/04 06:22:10;;;;;;;19.38;11.68;;;2.10;99.90;;;;;;5033312;28;20483;-67
2020/12/04 06:24:54;;;;;;;20.00;12.13;;;2.00;99.90;;;;;;5031220;28;20112;-66
2020/12/04 06:27:49;;;;;;;17.52;11.43;;;2.10;99.90;;;;;;5033412;28;20029;-68
2020/12/04 06:30:18;;;;;;;18.48;11.52;;;2.00;99.90;;;;;;5028317;28;20139;-69
2020/12/04 06:32:50;;;;;;;19.80;12.57;;;2.00;99.90;;;;;;5031413;28;20029;-68
2020/12/04 06:35:40;;;;;;;21.25;12.85;;;2.00;99.90;;;;;;5032484;28;20372;-69
2020/12/04 06:38:06;;;;;;;21.60;13.07;;;2.00;99.90;;;;;;5027150;28;20168;-68
2020/12/04 06:40:31;;;;;;;22.63;13.90;;;2.10;99.90;;;;;;5031244;28;20182;-69
2020/12/04 06:43:01;;;;;;;23.30;13.25;;;2.10;99.90;;;;;;5032915;28;20032;-68
2020/12/04 06:45:46;;;;;;;23.58;13.88;;;2.10;99.90;;;;;;5033206;28;20048;-69
2020/12/04 06:48:17;;;;;;;21.58;12.82;;;2.10;99.90;;;;;;5032980;28;20108;-69
2020/12/04 06:50:48;;;;;;;23.23;13.77;;;2.10;99.90;;;;;;5054626;22;20119;-73
2020/12/04 06:53:15;;;;;;;17.73;12.05;;;2.10;99.90;;;;;;5036724;28;20504;-72
2020/12/04 06:55:42;;;;;;;20.02;12.27;;;2.10;99.90;;;;;;5052741;28;20036;-73
2020/12/04 06:58:08;;;;;;;23.65;12.65;;;2.10;99.90;;;;;;5033311;28;20026;-73
2020/12/04 07:00:35;;;;;;;25.45;13.25;;;2.20;99.90;;;;;;5032730;28;20024;-72
2020/12/04 07:03:05;;;;;;;29.48;14.32;;;2.30;99.90;;;;;;5032465;28;20097;-71
2020/12/04 07:05:32;;;;;;;29.70;15.98;;;2.30;99.90;;;;;;5032772;28;20021;-70
2020/12/04 07:08:16;;;;;;;27.77;14.43;;;2.30;99.90;;;;;;5032911;28;20471;-73
2020/12/04 07:10:41;;;;;;;25.50;14.25;;;2.40;99.90;;;;;;5032291;28;20044;-72
2020/12/04 07:13:07;;;;;;;32.78;14.82;;;2.40;99.90;;;;;;5022068;28;20033;-74
2020/12/04 07:15:33;;;;;;;28.23;16.10;;;2.50;99.90;;;;;;5032557;28;20108;-73
2020/12/04 07:18:00;;;;;;;33.47;16.05;;;2.50;99.90;;;;;;5032737;28;20021;-73
2020/12/04 07:20:36;;;;;;;31.92;15.80;;;2.50;99.90;;;;;;5032632;28;20067;-72
2020/12/04 07:23:07;;;;;;;27.30;14.05;;;2.40;99.90;;;;;;5032001;28;20022;-73
2020/12/04 07:25:34;;;;;;;23.30;14.13;;;2.40;99.90;;;;;;5033839;28;20158;-74
2020/12/04 07:28:01;;;;;;;22.15;12.93;;;2.40;99.90;;;;;;5033058;28;20021;-71
2020/12/04 07:30:29;;;;;;;22.08;13.55;;;2.40;99.90;;;;;;5031838;28;20017;-74
2020/12/04 07:32:55;;;;;;;18.70;11.77;;;2.40;99.90;;;;;;5031401;28;20454;-72
2020/12/04 07:35:22;;;;;;;21.10;11.25;;;2.50;99.90;;;;;;5032848;28;20064;-73
2020/12/04 07:37:48;;;;;;;17.83;11.18;;;2.50;99.90;;;;;;5032627;28;20029;-72
2020/12/04 07:40:15;;;;;;;20.40;11.68;;;2.60;99.90;;;;;;5033138;28;20768;-73
2020/12/04 07:42:41;;;;;;;18.33;10.40;;;2.60;99.90;;;;;;5031426;28;20036;-72
2020/12/04 07:45:12;;;;;;;16.60;11.00;;;2.60;99.90;;;;;;5033738;28;20024;-72
2020/12/04 07:47:42;;;;;;;17.88;12.50;;;2.60;99.90;;;;;;5034233;28;20522;-72
2020/12/04 07:50:12;;;;;;;23.60;13.23;;;2.70;99.90;;;;;;5033980;28;20192;-72
2020/12/04 07:52:49;;;;;;;23.23;15.05;;;2.60;99.90;;;;;;5032591;28;20062;-72
2020/12/04 07:55:17;;;;;;;23.00;14.25;;;2.70;99.90;;;;;;5032686;28;20025;-71
2020/12/04 07:57:45;;;;;;;22.92;15.77;;;2.70;99.90;;;;;;5031935;28;20601;-72
2020/12/04 08:00:14;;;;;;;25.35;14.93;;;2.80;99.90;;;;;;5030064;28;20025;-72
2020/12/04 08:02:40;;;;;;;25.75;14.85;;;2.80;99.90;;;;;;5031144;28;20029;-73
2020/12/04 08:05:06;;;;;;;25.33;14.75;;;2.70;99.90;;;;;;5031620;28;20022;-72
2020/12/04 08:07:33;;;;;;;23.67;14.60;;;2.70;99.90;;;;;;5031697;28;20024;-72
2020/12/04 08:10:00;;;;;;;21.33;13.32;;;2.80;99.90;;;;;;5031427;28;20021;-72
2020/12/04 08:12:34;;;;;;;22.25;13.40;;;3.00;99.90;;;;;;5031471;28;20057;-72
2020/12/04 08:15:02;;;;;;;20.65;13.40;;;2.90;99.90;;;;;;5032917;28;20576;-73
2020/12/04 08:17:30;;;;;;;23.98;14.82;;;3.10;99.90;;;;;;5033398;28;20104;-72
2020/12/04 08:19:59;;;;;;;19.25;12.80;;;3.20;99.90;;;;;;5033188;28;20018;-72
2020/12/04 08:22:32;;;;;;;18.90;12.57;;;3.10;99.90;;;;;;5034364;28;20029;-72
2020/12/04 08:25:17;;;;;;;21.58;13.02;;;3.20;99.90;;;;;;5031004;28;20448;-73
2020/12/04 08:27:46;;;;;;;23.90;14.55;;;3.20;99.90;;;;;;5031725;28;20029;-72
2020/12/04 08:30:22;;;;;;;18.90;13.18;;;3.30;99.90;;;;;;5031114;28;20029;-72
2020/12/04 08:32:54;;;;;;;22.35;14.27;;;3.20;99.90;;;;;;5030594;28;20017;-72
2020/12/04 08:35:21;;;;;;;17.55;11.25;;;3.10;99.90;;;;;;5031162;28;20516;-72
2020/12/04 08:37:47;;;;;;;24.42;15.98;;;3.10;99.90;;;;;;5031290;28;20042;-72
2020/12/04 08:40:28;;;;;;;26.95;14.57;;;3.00;99.90;;;;;;5031408;28;20025;-72
2020/12/04 08:43:22;;;;;;;24.20;14.25;;;3.10;99.90;;;;;;5031775;28;20022;-73
2020/12/04 08:45:57;;;;;;;19.15;13.60;;;3.10;99.90;;;;;;5029424;28;20034;-73
2020/12/04 08:48:25;;;;;;;24.30;13.63;;;3.40;99.90;;;;;;5033929;28;20028;-72
2020/12/04 08:50:57;;;;;;;18.58;13.32;;;3.50;99.90;;;;;;5035180;28;20068;-71
2020/12/04 08:53:24;;;;;;;21.17;13.27;;;3.60;99.90;;;;;;5034667;28;20040;-71
2020/12/04 08:56:00;;;;;;;19.77;13.73;;;3.70;99.90;;;;;;5035267;28;20029;-71
2020/12/04 08:58:27;;;;;;;19.63;13.30;;;3.60;99.90;;;;;;5036137;28;20025;-72
2020/12/04 09:00:54;;;;;;;19.70;12.18;;;3.70;99.90;;;;;;5034654;28;20045;-71
2020/12/04 09:03:21;;;;;;;19.60;12.85;;;3.80;99.90;;;;;;5034992;28;20040;-71
2020/12/04 09:05:48;;;;;;;16.05;11.30;;;3.90;99.90;;;;;;5034958;28;20108;-73
2020/12/04 09:08:14;;;;;;;18.55;12.13;;;4.00;99.90;;;;;;5035540;28;20025;-70
2020/12/04 09:10:40;;;;;;;19.10;12.20;;;4.10;99.90;;;;;;5035167;28;20049;-71
2020/12/04 09:13:07;;;;;;;20.00;13.48;;;4.20;99.90;;;;;;5033534;28;20104;-69
2020/12/04 09:15:33;;;;;;;23.55;13.63;;;3.80;99.90;;;;;;5034553;28;20026;-70
2020/12/04 09:17:59;;;;;;;20.70;12.88;;;3.80;99.90;;;;;;5034555;28;20036;-72
2020/12/04 09:20:25;;;;;;;23.98;13.90;;;3.90;99.90;;;;;;5033996;28;20450;-71
2020/12/04 09:22:54;;;;;;;19.50;13.07;;;4.00;99.90;;;;;;5034532;28;20128;-70
2020/12/04 09:25:22;;;;;;;24.65;13.85;;;3.90;99.90;;;;;;5034407;28;20057;-70
2020/12/04 09:27:47;;;;;;;22.15;13.90;;;3.90;99.90;;;;;;5034767;28;20435;-70
2020/12/04 09:30:15;;;;;;;20.00;12.90;;;3.80;99.90;;;;;;5035242;28;20026;-71
2020/12/04 09:32:46;;;;;;;22.20;13.60;;;3.80;99.90;;;;;;5035751;28;20021;-70
2020/12/04 09:35:12;;;;;;;19.65;13.25;;;3.90;99.90;;;;;;5035403;28;20029;-70
2020/12/04 09:37:40;;;;;;;21.67;13.88;;;3.80;99.90;;;;;;5034277;28;20064;-71
2020/12/04 09:40:09;;;;;;;27.70;13.38;;;3.80;99.90;;;;;;5032564;28;20025;-71
2020/12/04 09:42:35;;;;;;;21.30;12.70;;;3.90;99.90;;;;;;5032563;28;20017;-71
2020/12/04 09:45:01;;;;;;;19.05;12.98;;;3.80;99.90;;;;;;5033420;28;20049;-71
2020/12/04 09:47:30;;;;;;;26.65;14.82;;;3.60;99.90;;;;;;5034174;28;20108;-71
2020/12/04 09:49:56;;;;;;;25.50;14.60;;;3.60;99.90;;;;;;5033603;28;20080;-71
2020/12/04 09:52:22;;;;;;;19.58;13.20;;;3.60;99.90;;;;;;5033917;28;20075;-71
2020/12/04 09:54:49;;;;;;;27.98;14.43;;;3.70;99.90;;;;;;5032834;28;20032;-71
2020/12/04 09:57:16;;;;;;;26.85;15.27;;;3.60;99.90;;;;;;5034153;28;20175;-71
2020/12/04 09:59:43;;;;;;;38.90;28.33;;;3.70;99.90;;;;;;5033554;28;20026;-72
2020/12/04 10:02:09;;;;;;;23.38;17.38;;;3.90;99.90;;;;;;5032544;28;20025;-71
2020/12/04 10:04:37;;;;;;;27.10;16.05;;;3.80;99.90;;;;;;5032906;28;20079;-72
2020/12/04 10:07:02;;;;;;;23.08;15.43;;;3.80;99.90;;;;;;5033589;28;20503;-71
2020/12/04 10:09:29;;;;;;;21.00;14.30;;;3.90;99.90;;;;;;5027276;28;20040;-70
2020/12/04 10:11:55;;;;;;;17.90;12.70;;;4.50;99.90;;;;;;5031559;28;20033;-70
2020/12/04 10:14:21;;;;;;;17.30;12.00;;;4.60;99.90;;;;;;5034686;28;20033;-71
2020/12/04 10:16:48;;;;;;;19.80;12.88;;;4.80;99.90;;;;;;5033508;28;20025;-70
2020/12/04 10:19:16;;;;;;;23.05;12.50;;;4.80;99.90;;;;;;5033749;28;20091;-73
2020/12/04 10:21:45;;;;;;;19.92;13.63;;;4.80;99.90;;;;;;5048459;28;20045;-72
2020/12/04 10:24:11;;;;;;;24.15;14.25;;;4.60;99.90;;;;;;5042637;28;20026;-71
2020/12/04 10:26:42;;;;;;;19.73;12.88;;;4.50;99.90;;;;;;5033701;28;20025;-71
2020/12/04 10:29:09;;;;;;;22.73;13.57;;;4.30;99.90;;;;;;5033969;28;20052;-72
2020/12/04 10:31:35;;;;;;;20.45;13.25;;;4.10;99.90;;;;;;5031799;28;20034;-71
2020/12/04 10:34:02;;;;;;;20.65;14.35;;;4.10;99.90;;;;;;5034973;28;20550;-70
2020/12/04 10:36:28;;;;;;;25.30;13.75;;;3.90;99.90;;;;;;5039111;28;20037;-70
2020/12/04 10:38:57;;;;;;;22.73;15.40;;;3.60;99.90;;;;;;5033540;28;20152;-72
2020/12/04 10:41:23;;;;;;;24.60;15.63;;;3.60;99.90;;;;;;5032956;28;20475;-71
2020/12/04 10:43:49;;;;;;;22.20;14.25;;;3.50;99.90;;;;;;5032891;28;20030;-71
2020/12/04 10:46:16;;;;;;;30.02;15.15;;;3.70;99.90;;;;;;5033251;28;20021;-70
2020/12/04 10:48:42;;;;;;;25.02;14.65;;;3.90;99.90;;;;;;5033374;28;20018;-70
2020/12/04 10:51:07;;;;;;;16.98;12.82;;;4.10;99.90;;;;;;5032036;28;20033;-70
2020/12/04 10:53:33;;;;;;;22.55;14.13;;;4.10;99.90;;;;;;5032703;28;20480;-70
2020/12/04 10:55:59;;;;;;;24.77;14.93;;;4.30;99.90;;;;;;5040482;28;20475;-71
2020/12/04 10:58:25;;;;;;;25.63;15.38;;;4.30;99.90;;;;;;5037816;28;20036;-71
2020/12/04 11:00:51;;;;;;;23.17;15.63;;;4.40;99.90;;;;;;5034437;28;20017;-72
2020/12/04 11:03:30;;;;;;;28.55;17.02;;;4.30;99.90;;;;;;5031913;28;20060;-71
2020/12/04 11:05:55;;;;;;;21.27;14.07;;;4.20;99.90;;;;;;5032370;28;20021;-71
2020/12/04 11:08:22;;;;;;;21.83;14.70;;;4.00;99.90;;;;;;5032938;28;20493;-71
2020/12/04 11:10:48;;;;;;;23.42;16.27;;;4.00;99.90;;;;;;5032507;28;20029;-70
2020/12/04 11:13:13;;;;;;;23.50;15.55;;;4.10;99.90;;;;;;5031723;28;20395;-70
2020/12/04 11:15:40;;;;;;;22.70;15.65;;;4.30;99.90;;;;;;5037541;28;20025;-71
2020/12/04 11:18:06;;;;;;;21.27;14.93;;;4.40;99.90;;;;;;5040346;28;20041;-70
2020/12/04 11:20:31;;;;;;;18.83;13.23;;;4.30;99.90;;;;;;5032880;28;20108;-73
2020/12/04 11:22:57;;;;;;;18.95;13.20;;;4.40;99.90;;;;;;5031485;28;20100;-73
2020/12/04 11:25:23;;;;;;;23.30;15.27;;;4.40;99.90;;;;;;5032948;28;20049;-74
2020/12/04 11:27:50;;;;;;;23.40;14.65;;;4.40;99.90;;;;;;5032457;28;20480;-72
2020/12/04 11:30:18;;;;;;;24.15;15.70;;;4.40;99.90;;;;;;5031901;28;20095;-73
2020/12/04 11:32:48;;;;;;;28.05;16.20;;;4.50;99.90;;;;;;5039223;28;20030;-72
2020/12/04 11:35:15;;;;;;;28.00;15.70;;;4.60;99.90;;;;;;5032083;28;20364;-73
2020/12/04 11:37:47;;;;;;;37.25;20.08;;;4.60;99.90;;;;;;5032002;28;20120;-72
2020/12/04 11:40:15;;;;;;;50.47;25.27;;;4.40;99.90;;;;;;5033388;28;20072;-72
2020/12/04 11:42:42;;;;;;;32.63;19.63;;;4.50;99.90;;;;;;5030456;28;20030;-71
2020/12/04 11:45:09;;;;;;;35.13;18.50;;;4.50;99.90;;;;;;5032411;28;20018;-72
2020/12/04 11:47:37;;;;;;;26.23;17.15;;;4.40;99.90;;;;;;5033048;28;20403;-73
2020/12/04 11:50:09;;;;;;;31.15;19.73;;;4.50;99.90;;;;;;5032397;28;20060;-72
2020/12/04 11:52:36;;;;;;;24.65;15.90;;;4.40;99.90;;;;;;5031639;28;20565;-74
2020/12/04 11:55:06;;;;;;;23.88;16.08;;;4.40;99.90;;;;;;5032174;28;20026;-74
2020/12/04 11:57:31;;;;;;;30.45;17.80;;;4.40;99.90;;;;;;5031073;28;20717;-72
2020/12/04 11:59:58;;;;;;;25.60;15.88;;;4.40;99.90;;;;;;5033102;28;20029;-71
2020/12/04 12:02:24;;;;;;;27.33;16.85;;;4.40;99.90;;;;;;5031811;28;20503;-70
2020/12/04 12:04:50;;;;;;;21.63;14.85;;;4.30;99.90;;;;;;5031856;28;20083;-72
2020/12/04 12:07:15;;;;;;;25.23;15.48;;;4.30;99.90;;;;;;5032648;28;20022;-73
2020/12/04 12:09:41;;;;;;;23.92;14.77;;;4.40;99.90;;;;;;5032127;28;20107;-72
2020/12/04 12:12:07;;;;;;;26.80;16.00;;;4.50;99.90;;;;;;5031929;28;20487;-73
2020/12/04 12:14:33;;;;;;;19.27;14.07;;;4.60;99.90;;;;;;5031399;28;20475;-72
2020/12/04 12:16:59;;;;;;;22.33;15.07;;;4.60;99.90;;;;;;5031874;28;20018;-72
2020/12/04 12:19:25;;;;;;;26.15;15.85;;;4.60;99.90;;;;;;5031838;28;20045;-72
2020/12/04 12:21:51;;;;;;;23.80;15.38;;;4.80;99.90;;;;;;5030932;28;20131;-73
2020/12/04 12:24:16;;;;;;;25.80;14.82;;;4.80;99.90;;;;;;5029496;28;20025;-72
2020/12/04 12:26:43;;;;;;;26.98;14.95;;;4.80;99.90;;;;;;5033578;28;20087;-71
2020/12/04 12:29:08;;;;;;;28.00;14.50;;;4.80;99.90;;;;;;5031422;28;20495;-72
2020/12/04 12:31:34;;;;;;;23.83;14.52;;;4.80;99.90;;;;;;5032848;28;20092;-71
2020/12/04 12:34:00;;;;;;;26.08;16.63;;;4.60;99.90;;;;;;5030783;28;20041;-71
2020/12/04 12:36:26;;;;;;;21.45;14.60;;;4.70;99.90;;;;;;5032973;28;20034;-73
2020/12/04 12:38:56;;;;;;;22.17;13.75;;;4.60;99.90;;;;;;5030298;28;20541;-72